Time;durP1;ratioP1;P1;durP2;ratioP2;P2;SDS_P1;SDS_P2;PMS_P1;PMS_P2;Temp;Humidity;BMP_temperature;BMP_pressure;BME280_temperature;BME280_humidity;BME280_pressure;Samples;Min_cycle;Max_cycle;Signal;HPM_P1;HPM_P2
2022/08/10 00:01:50;;;;;;;6.82;4.43;;;17.20;99.90;;;;;;5092438;28;20044;-71
2022/08/10 00:04:15;;;;;;;6.80;3.90;;;17.40;99.90;;;;;;5073473;28;20099;-71
2022/08/10 00:06:41;;;;;;;7.47;4.53;;;17.30;99.90;;;;;;5092519;28;20485;-71
2022/08/10 00:09:06;;;;;;;8.13;4.50;;;17.30;99.90;;;;;;5112821;22;20043;-74
2022/08/10 00:11:32;;;;;;;6.15;5.15;;;17.20;99.90;;;;;;5091781;28;20038;-74
2022/08/10 00:13:57;;;;;;;5.65;4.25;;;17.30;99.90;;;;;;5092273;28;20032;-74
2022/08/10 00:16:23;;;;;;;7.00;4.60;;;17.20;99.90;;;;;;5090840;28;20044;-74
2022/08/10 00:18:48;;;;;;;8.45;4.18;;;17.30;99.90;;;;;;5091442;28;20079;-74
2022/08/10 00:21:14;;;;;;;6.78;4.38;;;17.30;99.90;;;;;;5091664;28;20065;-74
2022/08/10 00:23:40;;;;;;;5.88;5.00;;;17.20;99.90;;;;;;5092139;28;20117;-74
2022/08/10 00:26:06;;;;;;;10.95;6.35;;;17.00;99.90;;;;;;5092059;28;20486;-74
2022/08/10 00:28:31;;;;;;;9.93;6.20;;;17.10;99.90;;;;;;5091958;28;20028;-74
2022/08/10 00:30:57;;;;;;;9.20;6.57;;;17.10;99.90;;;;;;5091595;28;20047;-74
2022/08/10 00:33:23;;;;;;;10.40;6.65;;;17.00;99.90;;;;;;5091990;28;20093;-74
2022/08/10 00:35:49;;;;;;;7.80;6.65;;;17.00;99.90;;;;;;5092117;28;20119;-74
2022/08/10 00:38:15;;;;;;;11.18;5.90;;;16.90;99.90;;;;;;5092022;28;20040;-74
2022/08/10 00:40:41;;;;;;;8.77;6.80;;;16.80;99.90;;;;;;5091685;28;20044;-74
2022/08/10 00:43:07;;;;;;;11.98;6.40;;;16.90;99.90;;;;;;5092217;28;20032;-74
2022/08/10 00:45:34;;;;;;;11.20;6.80;;;16.70;99.90;;;;;;5091839;28;20043;-74
2022/08/10 00:48:00;;;;;;;10.15;6.70;;;16.80;99.90;;;;;;5091757;28;20046;-74
2022/08/10 00:50:25;;;;;;;13.98;7.85;;;16.70;99.90;;;;;;5091396;28;20123;-74
2022/08/10 00:52:51;;;;;;;12.25;7.57;;;17.00;99.90;;;;;;5090452;28;20119;-73
2022/08/10 00:55:18;;;;;;;11.00;7.50;;;16.70;99.90;;;;;;5091817;28;20513;-74
2022/08/10 00:57:45;;;;;;;11.75;7.85;;;16.90;99.90;;;;;;5091764;28;20482;-74
2022/08/10 01:00:10;;;;;;;8.27;7.07;;;16.80;99.90;;;;;;5091251;28;20055;-74
2022/08/10 01:02:36;;;;;;;11.38;7.95;;;16.80;99.90;;;;;;5091547;28;20397;-74
2022/08/10 01:05:06;;;;;;;10.73;8.20;;;16.80;99.90;;;;;;5091749;28;20050;-74
2022/08/10 01:07:48;;;;;;;10.45;7.60;;;16.80;99.90;;;;;;5091714;28;20104;-75
2022/08/10 01:10:41;;;;;;;10.95;7.50;;;16.80;99.90;;;;;;5091111;28;20036;-74
2022/08/10 01:13:28;;;;;;;11.95;8.50;;;16.60;99.90;;;;;;5091751;28;20040;-74
2022/08/10 01:16:07;;;;;;;8.98;7.20;;;16.90;99.90;;;;;;5094223;28;20036;-74
2022/08/10 01:18:42;;;;;;;9.82;6.88;;;16.60;99.90;;;;;;5095532;28;20032;-74
2022/08/10 01:21:52;;;;;;;9.15;7.70;;;16.70;99.90;;;;;;5076941;28;20051;-74
2022/08/10 01:24:52;;;;;;;11.75;8.25;;;16.60;99.90;;;;;;5095540;28;20077;-74
2022/08/10 01:27:39;;;;;;;17.70;8.40;;;16.70;99.90;;;;;;5095289;28;20047;-74
2022/08/10 01:30:09;;;;;;;13.82;8.35;;;16.60;99.90;;;;;;5095166;28;20036;-74
2022/08/10 01:32:40;;;;;;;16.90;10.30;;;16.70;99.90;;;;;;5094291;28;20406;-74
2022/08/10 01:35:15;;;;;;;13.77;8.38;;;16.70;99.90;;;;;;5093832;28;20051;-74
2022/08/10 01:38:05;;;;;;;12.48;7.95;;;16.60;99.90;;;;;;5095181;28;20040;-74
2022/08/10 01:40:34;;;;;;;12.50;7.40;;;16.50;99.90;;;;;;5094999;28;20128;-73
2022/08/10 01:43:04;;;;;;;9.88;7.45;;;16.50;99.90;;;;;;5094932;28;20036;-74
2022/08/10 01:45:33;;;;;;;10.77;7.22;;;16.50;99.90;;;;;;5094031;28;20378;-75
2022/08/10 01:50:52;;;;;;;10.23;7.88;;;16.60;99.90;;;;;;5094829;28;20052;-72
2022/08/10 01:53:26;;;;;;;10.38;8.38;;;16.50;99.90;;;;;;5095090;28;20093;-72
2022/08/10 01:55:55;;;;;;;12.20;8.70;;;16.50;99.90;;;;;;5093645;28;20083;-72
2022/08/10 01:58:23;;;;;;;15.02;9.98;;;16.50;99.90;;;;;;5093676;28;20523;-72
2022/08/10 02:00:50;;;;;;;15.00;10.80;;;16.40;99.90;;;;;;5093101;28;20040;-72
2022/08/10 02:03:18;;;;;;;13.18;9.57;;;16.50;99.90;;;;;;5094695;28;20055;-72
2022/08/10 02:05:46;;;;;;;18.45;10.05;;;16.60;99.90;;;;;;5094878;28;20075;-72
2022/08/10 02:08:14;;;;;;;15.88;9.13;;;16.40;99.90;;;;;;5094482;28;20044;-72
2022/08/10 02:10:43;;;;;;;17.48;10.27;;;16.70;99.90;;;;;;5094369;28;20051;-72
2022/08/10 02:13:10;;;;;;;14.65;10.98;;;16.40;99.90;;;;;;5094485;28;20040;-72
2022/08/10 02:15:39;;;;;;;17.38;11.20;;;16.70;99.90;;;;;;5094696;28;20092;-72
2022/08/10 02:18:07;;;;;;;19.50;12.52;;;16.40;99.90;;;;;;5093099;28;20040;-72
2022/08/10 02:20:44;;;;;;;21.70;13.45;;;16.70;99.90;;;;;;5094156;28;20048;-71
2022/08/10 02:23:23;;;;;;;25.08;14.45;;;16.60;99.90;;;;;;5094338;28;20158;-71
2022/08/10 02:25:50;;;;;;;22.35;14.52;;;16.30;99.90;;;;;;5094246;28;20043;-72
2022/08/10 02:28:19;;;;;;;22.55;13.93;;;16.50;99.90;;;;;;5092136;28;20040;-72
2022/08/10 02:30:47;;;;;;;33.13;17.52;;;16.50;99.90;;;;;;5093825;28;20362;-72
2022/08/10 02:33:16;;;;;;;21.80;14.15;;;16.50;99.90;;;;;;5094116;28;20044;-72
2022/08/10 02:35:42;;;;;;;24.30;16.33;;;16.60;99.90;;;;;;5094113;28;20040;-72
2022/08/10 02:38:11;;;;;;;28.90;16.08;;;16.70;99.90;;;;;;5093899;28;20493;-71
2022/08/10 02:40:40;;;;;;;30.02;17.85;;;16.50;99.90;;;;;;5093597;28;20555;-71
2022/08/10 02:43:20;;;;;;;27.88;15.93;;;16.30;99.90;;;;;;5094219;28;20036;-72
2022/08/10 02:45:58;;;;;;;23.73;14.88;;;16.60;99.90;;;;;;5093956;28;20036;-72
2022/08/10 02:48:34;;;;;;;21.27;14.18;;;16.50;99.90;;;;;;5093665;28;20470;-72
2022/08/10 02:51:07;;;;;;;29.65;16.95;;;16.30;99.90;;;;;;5093435;28;20505;-71
2022/08/10 02:53:38;;;;;;;;;;;16.60;99.90;;;;;;5094374;28;20097;-72
2022/08/10 02:56:06;;;;;;;27.70;14.88;;;16.50;99.90;;;;;;5093833;28;19958;-72
2022/08/10 02:58:46;;;;;;;22.13;14.40;;;16.40;99.90;;;;;;5092442;28;20052;-72
2022/08/10 03:01:16;;;;;;;25.13;13.93;;;16.50;99.90;;;;;;5093189;28;20040;-73
2022/08/10 03:03:58;;;;;;;20.42;13.82;;;16.40;99.90;;;;;;5093659;28;20044;-73
2022/08/10 03:06:32;;;;;;;22.33;14.10;;;16.20;99.90;;;;;;5093571;28;20044;-74
2022/08/10 03:09:00;;;;;;;21.02;13.55;;;16.40;99.90;;;;;;5093303;28;20064;-73
2022/08/10 03:11:29;;;;;;;18.00;12.65;;;16.20;99.90;;;;;;5093043;28;20069;-74
2022/08/10 03:13:57;;;;;;;21.65;13.10;;;16.30;99.90;;;;;;5093766;28;20075;-73
2022/08/10 03:16:24;;;;;;;27.77;16.05;;;16.20;99.90;;;;;;5093366;28;20032;-73
2022/08/10 03:18:51;;;;;;;31.27;17.25;;;16.20;99.90;;;;;;5091799;28;20720;-73
2022/08/10 03:21:19;;;;;;;31.40;17.65;;;16.30;99.90;;;;;;5091824;28;20036;-74
2022/08/10 03:23:45;;;;;;;35.28;17.70;;;16.30;99.90;;;;;;5091761;28;20069;-74
2022/08/10 03:26:12;;;;;;;41.92;19.80;;;16.10;99.90;;;;;;5092987;28;20039;-73
2022/08/10 03:28:38;;;;;;;33.97;18.67;;;16.20;99.90;;;;;;5093136;28;20040;-73
2022/08/10 03:31:04;;;;;;;38.75;19.25;;;16.40;99.90;;;;;;5092815;28;20033;-74
2022/08/10 03:33:38;;;;;;;31.73;19.58;;;16.10;99.90;;;;;;5093049;28;20040;-74
2022/08/10 03:36:05;;;;;;;34.88;19.85;;;16.20;99.90;;;;;;5092974;28;20089;-74
2022/08/10 03:38:31;;;;;;;32.58;17.35;;;16.30;99.90;;;;;;5092749;28;20047;-74
2022/08/10 03:41:04;;;;;;;26.73;15.07;;;16.30;99.90;;;;;;5092657;28;20098;-73
2022/08/10 03:43:30;;;;;;;22.88;13.45;;;16.10;99.90;;;;;;5092876;28;20051;-74
2022/08/10 03:45:59;;;;;;;23.15;14.52;;;16.30;99.90;;;;;;5092721;28;20489;-73
2022/08/10 03:48:27;;;;;;;19.85;13.43;;;16.20;99.90;;;;;;5092697;28;20412;-74
2022/08/10 03:50:54;;;;;;;17.35;12.38;;;16.40;99.90;;;;;;5091155;28;20055;-74
2022/08/10 03:53:20;;;;;;;21.20;12.75;;;16.30;99.90;;;;;;5092465;28;20505;-74
2022/08/10 03:55:46;;;;;;;16.30;11.27;;;16.30;99.90;;;;;;5092743;28;20050;-74
2022/08/10 03:58:13;;;;;;;19.63;13.35;;;16.30;99.90;;;;;;5092561;28;20040;-74
2022/08/10 04:00:40;;;;;;;16.67;12.35;;;16.10;99.90;;;;;;5092270;28;20070;-73
2022/08/10 04:03:06;;;;;;;15.35;11.32;;;15.90;99.90;;;;;;5092394;28;20044;-74
2022/08/10 04:05:32;;;;;;;21.02;12.63;;;16.00;99.90;;;;;;5092358;28;20439;-73
2022/08/10 04:08:01;;;;;;;18.08;11.23;;;16.30;99.90;;;;;;5092331;28;20413;-74
2022/08/10 04:10:27;;;;;;;16.55;12.30;;;15.90;99.90;;;;;;5091765;28;20068;-74
2022/08/10 04:12:53;;;;;;;14.20;10.70;;;15.80;99.90;;;;;;5092331;28;20047;-73
2022/08/10 04:15:19;;;;;;;19.55;11.95;;;16.30;99.90;;;;;;5092273;28;20039;-74
2022/08/10 04:17:45;;;;;;;15.23;11.23;;;16.10;99.90;;;;;;5092271;28;20446;-74
2022/08/10 04:20:31;;;;;;;15.38;11.23;;;16.20;99.90;;;;;;5091727;28;20509;-73
2022/08/10 04:23:02;;;;;;;15.02;10.77;;;15.90;99.90;;;;;;5090967;28;20032;-73
2022/08/10 04:25:29;;;;;;;14.73;10.27;;;16.00;99.90;;;;;;5092305;28;20032;-73
2022/08/10 04:27:55;;;;;;;15.13;10.95;;;16.20;99.90;;;;;;5092179;28;20094;-73
2022/08/10 04:30:21;;;;;;;15.52;10.40;;;16.00;99.90;;;;;;5091732;28;20067;-73
2022/08/10 04:32:52;;;;;;;17.85;11.30;;;16.10;99.90;;;;;;5092000;28;20040;-73
2022/08/10 04:35:19;;;;;;;16.50;11.40;;;16.00;99.90;;;;;;5092163;28;20142;-74
2022/08/10 04:37:48;;;;;;;17.58;11.10;;;16.00;99.90;;;;;;5090617;28;20089;-73
2022/08/10 04:40:16;;;;;;;14.85;10.25;;;16.20;99.90;;;;;;5091435;28;20661;-73
2022/08/10 04:42:41;;;;;;;13.93;10.90;;;16.10;99.90;;;;;;5091990;28;20111;-73
2022/08/10 04:45:10;;;;;;;17.17;12.48;;;16.00;99.90;;;;;;5091663;28;20537;-73
2022/08/10 04:47:37;;;;;;;19.15;13.40;;;16.30;99.90;;;;;;5090608;28;20048;-74
2022/08/10 04:50:03;;;;;;;24.42;14.10;;;16.20;99.90;;;;;;5092659;28;20038;-73
2022/08/10 04:52:29;;;;;;;27.48;17.45;;;16.00;99.90;;;;;;5097205;28;20618;-73
2022/08/10 04:54:54;;;;;;;37.13;19.38;;;16.30;99.90;;;;;;5098594;28;20048;-74
2022/08/10 04:57:20;;;;;;;24.67;14.02;;;16.50;99.90;;;;;;5098685;28;20044;-74
2022/08/10 04:59:45;;;;;;;19.20;13.30;;;16.20;99.90;;;;;;5098209;28;20052;-74
2022/08/10 05:02:11;;;;;;;17.10;12.02;;;16.50;99.90;;;;;;5098385;28;20042;-74
2022/08/10 05:04:37;;;;;;;16.33;12.40;;;16.80;99.90;;;;;;5098506;28;20127;-73
2022/08/10 05:07:07;;;;;;;18.80;11.57;;;16.70;99.90;;;;;;5098517;28;20055;-73
2022/08/10 05:09:32;;;;;;;19.35;10.90;;;16.80;99.90;;;;;;5097825;28;20032;-74
2022/08/10 05:11:58;;;;;;;18.02;12.05;;;17.10;99.90;;;;;;5098373;28;20039;-73
2022/08/10 05:14:23;;;;;;;12.90;9.95;;;17.10;99.90;;;;;;5098224;28;20046;-74
2022/08/10 05:16:49;;;;;;;17.70;12.20;;;16.90;99.90;;;;;;5098214;28;20076;-74
2022/08/10 05:19:15;;;;;;;18.83;13.27;;;17.30;99.90;;;;;;5098029;28;20075;-74
2022/08/10 05:21:40;;;;;;;23.65;12.02;;;17.50;99.90;;;;;;5098432;28;20036;-74
2022/08/10 05:24:06;;;;;;;19.88;12.63;;;17.50;99.90;;;;;;5096882;28;20040;-74
2022/08/10 05:26:31;;;;;;;22.38;12.20;;;17.70;99.90;;;;;;5098347;28;20040;-73
2022/08/10 05:28:57;;;;;;;17.20;11.00;;;17.80;99.90;;;;;;5097971;28;20404;-74
2022/08/10 05:31:23;;;;;;;19.10;13.73;;;17.90;99.90;;;;;;5098096;28;20136;-74
2022/08/10 05:33:49;;;;;;;23.55;13.45;;;18.10;99.90;;;;;;5097099;28;20042;-75
2022/08/10 05:36:15;;;;;;;22.02;12.38;;;18.30;99.90;;;;;;5098194;28;20040;-74
2022/08/10 05:38:41;;;;;;;17.77;12.13;;;18.70;99.90;;;;;;5098126;28;20062;-74
2022/08/10 05:41:07;;;;;;;19.88;12.68;;;18.60;99.90;;;;;;5097890;28;20051;-74
2022/08/10 05:43:33;;;;;;;15.93;10.60;;;18.50;99.90;;;;;;5097915;28;20044;-74
2022/08/10 05:45:59;;;;;;;15.38;9.88;;;18.90;99.90;;;;;;5097035;28;20393;-74
2022/08/10 05:48:24;;;;;;;13.13;9.52;;;19.00;99.90;;;;;;5079795;28;20040;-74
2022/08/10 05:50:50;;;;;;;13.90;9.27;;;18.90;99.90;;;;;;5096500;28;20036;-74
2022/08/10 05:53:16;;;;;;;15.30;8.73;;;18.80;99.90;;;;;;5097891;28;20047;-74
2022/08/10 05:55:44;;;;;;;13.43;8.73;;;19.00;99.90;;;;;;5096633;28;20036;-74
2022/08/10 05:58:10;;;;;;;10.15;8.15;;;19.20;99.90;;;;;;5096673;28;20087;-74
2022/08/10 06:00:39;;;;;;;12.52;8.60;;;19.40;99.90;;;;;;5079344;28;20068;-74
2022/08/10 06:03:08;;;;;;;10.63;8.18;;;19.40;99.90;;;;;;5093548;28;20081;-74
2022/08/10 06:05:37;;;;;;;8.80;6.65;;;19.50;99.90;;;;;;5093395;28;20051;-74
2022/08/10 06:08:08;;;;;;;10.90;6.90;;;19.60;99.90;;;;;;5093113;28;20028;-74
2022/08/10 06:10:36;;;;;;;10.02;6.95;;;19.80;99.90;;;;;;5102413;22;20044;-71
2022/08/10 06:15:54;;;;;;;10.40;5.75;;;20.10;99.90;;;;;;5074300;28;20040;-70
2022/08/10 06:18:21;;;;;;;9.77;5.75;;;20.30;99.90;;;;;;5039562;28;20048;-71
2022/08/10 06:20:48;;;;;;;7.97;6.03;;;20.30;99.90;;;;;;5073300;28;20494;-71
2022/08/10 06:23:14;;;;;;;6.75;5.35;;;20.40;99.90;;;;;;5073797;28;20040;-71
2022/08/10 06:25:40;;;;;;;7.95;4.88;;;20.50;99.90;;;;;;5056240;28;20071;-70
2022/08/10 06:28:08;;;;;;;9.38;5.47;;;20.90;99.90;;;;;;5073881;28;20076;-70
2022/08/10 06:30:34;;;;;;;11.82;5.80;;;21.00;99.90;;;;;;5073696;28;20131;-70
2022/08/10 06:33:01;;;;;;;9.80;5.50;;;21.30;99.90;;;;;;5073819;28;20528;-71
2022/08/10 06:35:29;;;;;;;6.53;5.55;;;21.20;99.90;;;;;;5073418;28;20043;-70
2022/08/10 06:37:57;;;;;;;6.05;4.72;;;21.50;99.90;;;;;;5073853;28;20055;-71
2022/08/10 06:40:26;;;;;;;6.63;5.00;;;21.60;99.90;;;;;;5073349;28;20040;-71
2022/08/10 06:42:53;;;;;;;9.52;6.13;;;21.60;99.90;;;;;;5073569;28;20170;-70
2022/08/10 06:45:22;;;;;;;7.47;5.15;;;22.00;99.90;;;;;;5073700;28;20037;-70
2022/08/10 06:47:58;;;;;;;9.90;5.35;;;22.10;99.90;;;;;;5073614;28;20047;-70
2022/08/10 06:50:39;;;;;;;6.35;4.28;;;22.30;99.90;;;;;;5073355;28;20082;-70
2022/08/10 06:53:15;;;;;;;6.18;4.00;;;22.50;99.90;;;;;;5055527;28;20032;-71
2022/08/10 06:55:50;;;;;;;8.77;4.63;;;22.50;99.90;;;;;;5073631;28;20037;-71
2022/08/10 06:58:20;;;;;;;5.10;3.50;;;22.60;99.90;;;;;;5073447;28;20119;-71
2022/08/10 07:00:46;;;;;;;7.40;3.47;;;22.70;99.90;;;;;;5073067;28;20039;-70
2022/08/10 07:03:14;;;;;;;4.70;3.30;;;22.90;99.90;;;;;;5073302;28;20040;-70
2022/08/10 07:05:48;;;;;;;6.82;3.28;;;23.10;98.70;;;;;;5073162;28;20036;-70
2022/08/10 07:08:17;;;;;;;4.10;2.83;;;23.20;97.30;;;;;;5073431;28;20076;-70
2022/08/10 07:10:45;;;;;;;4.80;2.88;;;23.10;96.70;;;;;;5054893;28;20626;-71
2022/08/10 07:13:13;;;;;;;5.53;3.65;;;22.90;96.10;;;;;;5055138;28;20560;-70
2022/08/10 07:15:40;;;;;;;7.55;3.60;;;23.00;95.70;;;;;;5073108;28;20086;-70
2022/08/10 07:18:07;;;;;;;5.18;2.92;;;23.10;95.50;;;;;;5072782;28;20487;-70
2022/08/10 07:20:34;;;;;;;5.20;3.03;;;23.40;95.50;;;;;;5072404;28;20107;-70
2022/08/10 07:23:01;;;;;;;4.20;3.72;;;23.50;94.90;;;;;;5072966;28;20036;-71
2022/08/10 07:25:27;;;;;;;6.55;3.80;;;23.30;94.00;;;;;;5072627;28;20482;-70
2022/08/10 07:27:56;;;;;;;5.43;3.30;;;23.60;94.00;;;;;;5054552;28;20409;-70
2022/08/10 07:30:22;;;;;;;5.60;3.40;;;23.60;93.40;;;;;;5054596;28;20040;-71
2022/08/10 07:32:52;;;;;;;5.22;3.75;;;23.90;92.90;;;;;;5072539;28;20044;-71
2022/08/10 07:35:19;;;;;;;2.97;2.63;;;24.00;91.80;;;;;;5072728;28;20123;-71
2022/08/10 07:37:48;;;;;;;6.22;3.03;;;24.20;91.40;;;;;;5072707;28;20120;-71
2022/08/10 07:40:15;;;;;;;3.97;2.70;;;24.30;90.10;;;;;;5072193;28;20049;-70
2022/08/10 07:42:43;;;;;;;5.57;2.70;;;24.40;89.20;;;;;;5072461;28;20101;-70
2022/08/10 07:45:10;;;;;;;5.88;3.63;;;24.50;87.90;;;;;;5072129;28;20510;-70
2022/08/10 07:48:00;;;;;;;7.45;3.45;;;24.40;86.60;;;;;;5072618;28;20034;-71
2022/08/10 07:50:28;;;;;;;4.47;3.45;;;24.70;85.60;;;;;;5060340;28;20048;-71
2022/08/10 07:52:59;;;;;;;6.53;3.00;;;24.80;85.70;;;;;;5066072;28;20102;-71
2022/08/10 07:55:25;;;;;;;7.32;3.15;;;24.90;84.80;;;;;;5049977;28;20095;-71
2022/08/10 07:57:54;;;;;;;8.98;4.05;;;24.90;83.60;;;;;;5034382;28;20037;-71
2022/08/10 08:00:21;;;;;;;4.18;2.63;;;25.00;82.20;;;;;;5051963;28;20033;-71
2022/08/10 08:02:58;;;;;;;4.47;2.60;;;25.00;82.50;;;;;;5052223;28;20168;-71
2022/08/10 08:05:27;;;;;;;5.63;2.95;;;25.10;81.40;;;;;;5051343;28;20043;-71
2022/08/10 08:07:55;;;;;;;4.97;3.30;;;25.30;80.20;;;;;;5051625;28;20037;-70
2022/08/10 08:10:24;;;;;;;5.20;3.55;;;25.20;78.90;;;;;;5032327;28;20033;-69
2022/08/10 08:12:51;;;;;;;7.45;3.40;;;25.20;78.70;;;;;;5049864;28;20582;-69
2022/08/10 08:15:20;;;;;;;5.88;3.45;;;25.40;78.30;;;;;;5049031;28;20045;-69
2022/08/10 08:17:47;;;;;;;6.30;3.55;;;25.30;78.80;;;;;;5045073;28;20439;-71
2022/08/10 08:20:16;;;;;;;19.13;5.22;;;25.50;78.20;;;;;;5044425;28;20040;-71
2022/08/10 08:22:43;;;;;;;5.95;3.22;;;25.30;78.40;;;;;;5032372;28;20037;-71
2022/08/10 08:25:09;;;;;;;4.47;2.88;;;25.70;78.30;;;;;;5049744;28;20086;-71
2022/08/10 08:27:37;;;;;;;6.75;3.28;;;25.90;76.50;;;;;;5033065;28;20048;-72
2022/08/10 08:30:03;;;;;;;8.68;3.38;;;26.00;74.60;;;;;;5050848;28;20461;-71
2022/08/10 08:32:32;;;;;;;8.45;3.70;;;26.00;73.30;;;;;;5051074;28;20443;-71
2022/08/10 08:35:10;;;;;;;6.25;3.63;;;26.10;73.20;;;;;;5033358;28;20113;-71
2022/08/10 08:37:38;;;;;;;8.52;3.65;;;26.20;73.00;;;;;;5048138;28;20116;-71
2022/08/10 08:40:06;;;;;;;8.85;3.10;;;26.10;71.90;;;;;;5050718;28;20041;-71
2022/08/10 08:42:53;;;;;;;7.28;3.15;;;26.30;70.80;;;;;;5032983;28;20041;-69
2022/08/10 08:45:33;;;;;;;8.35;3.25;;;25.90;69.90;;;;;;5050854;28;20041;-69
2022/08/10 08:48:33;;;;;;;5.90;3.35;;;26.00;70.10;;;;;;5051018;28;20037;-69
2022/08/10 08:51:09;;;;;;;7.45;3.17;;;26.20;69.80;;;;;;5050623;28;20063;-69
2022/08/10 08:54:10;;;;;;;5.05;3.38;;;26.30;71.00;;;;;;5032937;28;20076;-69
2022/08/10 08:56:42;;;;;;;7.35;3.75;;;26.20;69.50;;;;;;5050679;28;20402;-71
2022/08/10 08:59:48;;;;;;;4.85;3.58;;;26.20;69.90;;;;;;5050873;28;20072;-71
2022/08/10 09:02:22;;;;;;;6.80;3.83;;;26.20;68.70;;;;;;5050776;28;20064;-71
2022/08/10 09:05:18;;;;;;;9.13;3.40;;;26.30;68.80;;;;;;5050881;28;20041;-71
2022/08/10 09:08:21;;;;;;;4.50;2.75;;;26.30;68.40;;;;;;5050831;28;20397;-71
2022/08/10 09:10:52;;;;;;;6.70;3.17;;;26.40;65.90;;;;;;5014659;28;1041962;-71
2022/08/10 09:13:36;;;;;;;7.65;2.92;;;26.20;66.50;;;;;;5033985;28;20537;-71
2022/08/10 09:16:29;;;;;;;5.47;3.05;;;26.50;66.60;;;;;;5051722;28;20040;-71
2022/08/10 09:19:18;;;;;;;4.85;2.80;;;26.60;66.10;;;;;;5051375;28;20398;-71
2022/08/10 09:22:11;;;;;;;3.95;2.78;;;26.70;66.70;;;;;;5022752;28;20041;-71
2022/08/10 09:24:45;;;;;;;3.42;2.42;;;26.70;65.70;;;;;;5051333;28;20037;-71
2022/08/10 09:27:39;;;;;;;5.45;2.40;;;26.60;65.30;;;;;;5033573;28;20040;-71
2022/08/10 09:30:07;;;;;;;5.07;3.25;;;26.60;65.50;;;;;;5051277;28;20155;-72
2022/08/10 09:33:14;;;;;;;8.00;3.20;;;26.70;65.80;;;;;;5051399;28;20116;-71
2022/08/10 09:35:54;;;;;;;4.18;3.05;;;27.10;65.50;;;;;;5017358;28;20087;-71
2022/08/10 09:38:38;;;;;;;6.30;3.35;;;26.90;64.70;;;;;;5037371;28;20455;-71
2022/08/10 09:41:33;;;;;;;4.35;3.28;;;26.70;63.50;;;;;;5054678;28;20037;-70
2022/08/10 09:44:13;;;;;;;4.20;3.35;;;26.70;63.70;;;;;;5036844;28;20446;-70
2022/08/10 09:47:02;;;;;;;11.82;4.20;;;26.50;63.90;;;;;;5055086;28;20037;-70
2022/08/10 09:50:00;;;;;;;9.23;3.70;;;26.60;64.70;;;;;;5025765;28;20059;-70
2022/08/10 09:52:48;;;;;;;8.27;3.67;;;26.80;64.50;;;;;;5013167;28;20052;-70
2022/08/10 09:55:22;;;;;;;6.68;3.60;;;26.70;63.20;;;;;;5052994;28;20072;-70
2022/08/10 09:57:59;;;;;;;7.28;3.95;;;26.50;64.10;;;;;;5051835;28;20123;-71
2022/08/10 10:00:33;;;;;;;5.65;3.58;;;26.40;64.30;;;;;;5047881;28;20108;-71
2022/08/10 10:03:15;;;;;;;6.40;3.50;;;26.50;65.40;;;;;;5032814;28;20410;-71
2022/08/10 10:06:02;;;;;;;7.87;3.40;;;26.60;64.80;;;;;;5048986;28;20041;-71
2022/08/10 10:08:49;;;;;;;3.22;2.92;;;26.50;64.50;;;;;;5036226;28;20271;-70
2022/08/10 10:11:45;;;;;;;7.75;2.97;;;26.60;65.40;;;;;;5053981;28;20124;-71
2022/08/10 10:15:18;;;;;;;4.72;3.00;;;26.50;64.30;;;;;;5054470;28;20464;-71
2022/08/10 10:17:39;;;;;;;5.22;2.70;;;26.50;64.10;;;;;;5036419;28;20388;-71
2022/08/10 10:20:27;;;;;;;3.58;1.65;;;26.60;64.60;;;;;;5054068;28;20049;-71
2022/08/10 10:23:31;;;;;;;5.60;3.03;;;26.50;62.10;;;;;;5054008;28;20537;-71
2022/08/10 10:26:13;;;;;;;5.95;1.45;;;26.50;62.40;;;;;;5051773;28;20646;-71
2022/08/10 10:28:47;;;;;;;3.83;2.20;;;26.50;61.50;;;;;;5054218;28;20037;-70
2022/08/10 10:31:36;;;;;;;4.47;1.98;;;26.40;61.90;;;;;;5053694;28;20116;-72
2022/08/10 10:34:51;;;;;;;2.40;1.40;;;26.30;61.90;;;;;;5053961;28;20052;-70
2022/08/10 10:37:21;;;;;;;2.13;0.93;;;26.20;60.60;;;;;;5038793;28;20167;-70
2022/08/10 10:39:51;;;;;;;3.88;1.30;;;26.30;58.20;;;;;;5053532;28;20041;-70
2022/08/10 10:42:59;;;;;;;8.77;2.08;;;26.20;58.90;;;;;;5053759;28;20037;-70
2022/08/10 10:45:53;;;;;;;5.20;1.67;;;26.30;59.50;;;;;;4987768;28;20162;-70
2022/08/10 10:48:48;;;;;;;3.60;1.50;;;26.20;59.00;;;;;;5052305;28;20060;-71
2022/08/10 10:51:37;;;;;;;4.15;1.27;;;26.30;59.40;;;;;;5053346;28;20040;-70
2022/08/10 10:54:03;;;;;;;4.93;2.17;;;26.40;58.90;;;;;;5052627;28;20037;-70
2022/08/10 10:56:35;;;;;;;2.25;1.55;;;26.30;59.10;;;;;;5054272;28;20486;-70
2022/08/10 10:59:25;;;;;;;3.33;1.50;;;26.30;60.10;;;;;;5064889;28;20055;-71
2022/08/10 11:02:31;;;;;;;1.52;1.30;;;26.10;58.70;;;;;;5073296;28;20052;-70
2022/08/10 11:05:17;;;;;;;5.57;2.13;;;26.40;58.50;;;;;;5025978;28;20103;-70
2022/08/10 11:07:59;;;;;;;4.72;2.13;;;26.30;58.90;;;;;;5055593;28;20141;-71
2022/08/10 11:10:32;;;;;;;3.67;1.58;;;26.20;58.60;;;;;;5072992;28;20032;-71
2022/08/10 11:13:06;;;;;;;4.45;1.95;;;26.20;58.40;;;;;;5073253;28;20141;-71
2022/08/10 11:15:50;;;;;;;3.70;1.88;;;26.40;59.80;;;;;;5055353;28;20302;-70
2022/08/10 11:18:27;;;;;;;310.02;42.33;;;26.40;59.50;;;;;;5072828;28;20547;-71
2022/08/10 11:21:33;;;;;;;30.98;5.57;;;26.50;60.10;;;;;;5066911;28;20040;-71
2022/08/10 11:24:26;;;;;;;2.67;2.08;;;26.50;60.70;;;;;;5054678;28;20102;-69
2022/08/10 11:27:04;;;;;;;4.38;1.42;;;26.40;59.60;;;;;;5052241;28;20036;-69
2022/08/10 11:29:54;;;;;;;5.30;1.70;;;26.40;58.80;;;;;;5072692;28;20071;-69
2022/08/10 11:32:31;;;;;;;3.60;1.60;;;26.30;57.50;;;;;;5072769;28;20032;-69
2022/08/10 11:35:07;;;;;;;5.38;1.50;;;26.40;58.50;;;;;;5072990;28;20520;-69
2022/08/10 11:37:48;;;;;;;4.65;1.50;;;26.40;58.90;;;;;;5072682;28;20093;-68
2022/08/10 11:40:26;;;;;;;9.05;2.72;;;26.40;58.50;;;;;;5072319;28;20040;-69
2022/08/10 11:43:21;;;;;;;3.75;1.77;;;26.40;59.10;;;;;;5072548;28;20101;-69
2022/08/10 11:46:22;;;;;;;4.07;1.70;;;26.50;58.30;;;;;;5054793;28;20045;-69
2022/08/10 11:49:06;;;;;;;4.13;1.70;;;26.50;58.40;;;;;;5065277;28;20122;-69
2022/08/10 11:51:48;;;;;;;5.00;1.90;;;26.40;58.10;;;;;;5072250;28;20034;-69
2022/08/10 11:54:35;;;;;;;3.78;1.80;;;26.50;58.00;;;;;;5072551;28;20037;-69
2022/08/10 11:57:01;;;;;;;4.18;1.80;;;26.40;58.60;;;;;;5072416;28;20048;-69
2022/08/10 12:02:18;;;;;;;5.82;2.35;;;26.30;59.60;;;;;;5072390;28;20101;-69
2022/08/10 12:04:51;;;;;;;9.32;2.13;;;26.40;60.00;;;;;;5072287;28;20406;-69
2022/08/10 12:07:20;;;;;;;6.82;2.28;;;26.30;60.00;;;;;;5054512;28;20422;-69
2022/08/10 12:09:47;;;;;;;3.08;1.70;;;26.30;59.90;;;;;;5095900;22;20115;-73
2022/08/10 12:12:14;;;;;;;3.40;1.90;;;26.30;60.30;;;;;;5092514;28;20028;-73
2022/08/10 12:14:49;;;;;;;3.72;1.70;;;26.30;60.50;;;;;;5057377;28;20117;-73
2022/08/10 12:17:25;;;;;;;4.88;1.45;;;26.30;60.00;;;;;;5092419;28;20035;-70
2022/08/10 12:20:09;;;;;;;4.38;1.92;;;26.30;59.90;;;;;;5073851;28;20302;-71
2022/08/10 12:22:47;;;;;;;5.90;1.58;;;26.40;59.90;;;;;;5074418;28;20362;-73
2022/08/10 12:25:24;;;;;;;4.63;1.80;;;26.30;59.10;;;;;;5074028;28;20040;-71
2022/08/10 12:27:55;;;;;;;4.53;1.60;;;26.30;59.40;;;;;;5092286;28;20036;-71
2022/08/10 12:30:29;;;;;;;4.70;1.92;;;26.40;59.60;;;;;;5091664;28;20497;-71
2022/08/10 12:33:06;;;;;;;6.88;1.95;;;26.50;60.40;;;;;;5057241;28;20497;-71
2022/08/10 12:35:44;;;;;;;4.70;1.92;;;26.60;59.70;;;;;;5074200;28;20040;-71
2022/08/10 12:38:23;;;;;;;2.08;1.38;;;26.60;59.20;;;;;;5075274;28;20039;-72
2022/08/10 12:41:03;;;;;;;5.28;1.80;;;26.50;58.60;;;;;;5073721;28;20081;-71
2022/08/10 12:43:40;;;;;;;5.10;1.58;;;26.50;58.60;;;;;;5092697;28;20036;-71
2022/08/10 12:46:36;;;;;;;4.55;1.40;;;26.50;58.60;;;;;;5075177;28;20165;-71
2022/08/10 12:49:12;;;;;;;3.65;2.08;;;26.60;58.20;;;;;;5075772;28;20119;-71
2022/08/10 12:51:45;;;;;;;2.92;1.45;;;26.60;57.80;;;;;;5093024;28;20039;-71
2022/08/10 12:54:17;;;;;;;3.72;1.30;;;26.60;57.90;;;;;;5093824;28;20069;-71
2022/08/10 12:57:11;;;;;;;3.57;1.73;;;26.80;57.90;;;;;;5075220;28;20044;-71
2022/08/10 12:59:41;;;;;;;5.93;1.75;;;26.70;57.40;;;;;;5089407;28;20056;-71
2022/08/10 13:02:09;;;;;;;3.95;1.33;;;26.70;56.60;;;;;;5093044;28;20040;-71
2022/08/10 13:04:38;;;;;;;3.15;1.40;;;26.60;56.60;;;;;;5093178;28;20047;-71
2022/08/10 13:07:06;;;;;;;2.83;1.70;;;26.60;56.90;;;;;;5091864;28;20040;-71
2022/08/10 13:09:32;;;;;;;3.63;1.33;;;26.70;57.40;;;;;;5091132;28;20170;-71
2022/08/10 13:12:14;;;;;;;4.43;1.63;;;26.70;57.80;;;;;;5093919;28;20448;-71
2022/08/10 13:14:56;;;;;;;5.80;2.08;;;26.60;58.30;;;;;;5095798;28;20420;-71
2022/08/10 13:17:31;;;;;;;15.75;3.75;;;26.70;57.90;;;;;;5077703;28;20194;-71
2022/08/10 13:19:59;;;;;;;3.95;1.60;;;26.70;57.80;;;;;;5095261;28;20036;-73
2022/08/10 13:22:28;;;;;;;4.93;1.38;;;26.80;57.50;;;;;;5095598;28;20394;-71